Time;durP1;ratioP1;P1;durP2;ratioP2;P2;SDS_P1;SDS_P2;PMS_P1;PMS_P2;Temp;Humidity;BMP_temperature;BMP_pressure;BME280_temperature;BME280_humidity;BME280_pressure;Samples;Min_cycle;Max_cycle;Signal;HPM_P1;HPM_P2
2023/08/23 00:04:02;;;;;;;;;;;;;;;20.37;87.79;102019.22;20483681;28;19934;-62
2023/08/23 00:14:23;;;;;;;;;;;;;;;20.33;88.07;102012.41;20441272;28;19939;-62
2023/08/23 00:24:45;;;;;;;;;;;;;;;20.25;88.37;102010.22;20451539;28;19934;-62
2023/08/23 00:35:06;;;;;;;;;;;;;;;20.16;89.01;102015.91;20465450;28;19926;-62
2023/08/23 00:45:30;;;;;;;;;;;;;;;20.08;88.94;102023.31;20444988;28;19927;-62
2023/08/23 00:55:51;;;;;;;;;;;;;;;19.91;89.76;102031.19;20457838;28;19941;-62
2023/08/23 01:06:13;;;;;;;;;;;;;;;19.82;89.80;102023.75;20472179;28;19931;-62
2023/08/23 01:16:35;;;;;;;;;;;;;;;19.61;90.96;102011.69;20465958;28;19930;-62
2023/08/23 01:26:56;;;;;;;;;;;;;;;19.65;90.12;102008.00;20462549;28;20486;-62
2023/08/23 01:37:20;;;;;;;;;;;;;;;19.61;90.69;102012.50;20468063;28;19927;-62
2023/08/23 01:47:41;;;;;;;;;;;;;;;19.51;91.56;102000.75;20450528;28;20419;-62
2023/08/23 01:58:03;;;;;;;;;;;;;;;19.39;91.48;102003.13;20447724;28;20422;-62
2023/08/23 02:08:25;;;;;;;;;;;;;;;19.31;91.03;102008.75;20463446;28;20043;-62
2023/08/23 02:18:46;;;;;;;;;;;;;;;19.20;91.16;102025.88;20434676;28;19934;-62
2023/08/23 02:29:08;;;;;;;;;;;;;;;19.08;92.94;102036.94;20448342;28;19945;-62
2023/08/23 02:39:29;;;;;;;;;;;;;;;18.94;92.75;102025.31;20459520;28;19935;-62
2023/08/23 02:49:50;;;;;;;;;;;;;;;18.89;92.68;102027.28;20473595;28;19941;-62
2023/08/23 03:00:12;;;;;;;;;;;;;;;18.83;92.87;102032.81;20453393;28;19931;-62
2023/08/23 03:10:34;;;;;;;;;;;;;;;18.88;93.20;102009.00;20452986;28;20523;-62
2023/08/23 03:20:55;;;;;;;;;;;;;;;18.69;94.42;102003.72;20451997;28;20005;-62
2023/08/23 03:31:17;;;;;;;;;;;;;;;18.57;94.91;102003.44;20449039;28;19926;-63
2023/08/23 03:41:38;;;;;;;;;;;;;;;18.46;94.57;102001.25;20445985;28;20088;-62
2023/08/23 03:52:00;;;;;;;;;;;;;;;18.30;93.46;102001.94;20456097;28;19965;-63
2023/08/23 04:02:21;;;;;;;;;;;;;;;18.16;94.15;101999.94;20445377;28;20311;-62
2023/08/23 04:12:43;;;;;;;;;;;;;;;17.95;94.31;102020.03;20445031;28;19934;-62
2023/08/23 04:23:05;;;;;;;;;;;;;;;17.96;94.21;102010.41;20460700;28;19945;-62
2023/08/23 04:33:26;;;;;;;;;;;;;;;17.86;95.40;102009.06;20446836;28;20397;-62
2023/08/23 04:43:48;;;;;;;;;;;;;;;17.85;97.08;102007.38;20463717;28;19934;-62
2023/08/23 04:54:09;;;;;;;;;;;;;;;17.81;97.89;102011.91;20457616;28;19938;-62
2023/08/23 05:04:30;;;;;;;;;;;;;;;17.81;100.00;102005.78;20461051;28;19937;-62
2023/08/23 05:14:52;;;;;;;;;;;;;;;17.70;98.64;102026.31;20456318;28;19934;-62
2023/08/23 05:25:13;;;;;;;;;;;;;;;17.78;99.35;102021.63;20458585;28;19941;-62
2023/08/23 05:35:35;;;;;;;;;;;;;;;17.77;98.11;102041.72;20444164;28;19930;-62
2023/08/23 05:45:57;;;;;;;;;;;;;;;17.83;98.35;102024.91;20469529;28;19935;-62
2023/08/23 05:56:19;;;;;;;;;;;;;;;17.95;98.89;102030.50;20462924;28;20019;-62
2023/08/23 06:06:40;;;;;;;;;;;;;;;18.09;97.86;102037.81;20467452;28;20334;-62
2023/08/23 06:17:01;;;;;;;;;;;;;;;18.36;96.96;102033.16;20458074;28;19952;-62
2023/08/23 06:27:23;;;;;;;;;;;;;;;18.47;97.03;102038.81;20455107;28;20248;-62
2023/08/23 06:37:44;;;;;;;;;;;;;;;18.70;97.31;102030.78;20469357;28;20314;-62
2023/08/23 06:48:07;;;;;;;;;;;;;;;18.92;94.32;102019.28;20459440;28;19933;-63
2023/08/23 06:58:28;;;;;;;;;;;;;;;19.16;93.59;102042.69;20458893;28;19926;-62
2023/08/23 07:08:50;;;;;;;;;;;;;;;19.36;91.17;102032.13;20470445;28;20009;-62
2023/08/23 07:19:12;;;;;;;;;;;;;;;19.59;89.86;102042.41;20449231;28;20358;-62
2023/08/23 07:29:36;;;;;;;;;;;;;;;19.81;89.64;102017.63;20448527;28;20268;-62
2023/08/23 07:39:58;;;;;;;;;;;;;;;19.97;88.58;102025.63;20450548;28;19926;-62
2023/08/23 07:50:19;;;;;;;;;;;;;;;20.18;88.50;102029.81;20449103;28;19931;-62
2023/08/23 08:00:41;;;;;;;;;;;;;;;20.21;85.94;102034.09;20468063;28;19934;-62
2023/08/23 08:11:02;;;;;;;;;;;;;;;20.32;87.03;102053.66;20440175;28;19927;-62
2023/08/23 08:21:24;;;;;;;;;;;;;;;20.62;84.00;102064.41;20455819;28;19949;-62
2023/08/23 08:31:49;;;;;;;;;;;;;;;20.80;84.22;102064.25;20464121;28;19933;-63
2023/08/23 08:42:11;;;;;;;;;;;;;;;21.02;82.33;102054.31;20445864;28;19930;-62
2023/08/23 08:52:34;;;;;;;;;;;;;;;21.29;78.64;102057.28;20455091;28;19926;-62
2023/08/23 09:02:57;;;;;;;;;;;;;;;21.54;77.99;102049.69;20445115;28;19930;-62
2023/08/23 09:13:18;;;;;;;;;;;;;;;21.80;75.91;102048.25;20460466;28;19937;-62
2023/08/23 09:23:40;;;;;;;;;;;;;;;21.89;77.86;102060.91;20461417;28;19930;-63
2023/08/23 09:34:03;;;;;;;;;;;;;;;22.24;73.99;102054.44;20463998;28;19961;-62
2023/08/23 09:44:25;;;;;;;;;;;;;;;22.53;71.69;102045.63;20488115;28;20020;-63
2023/08/23 09:54:49;;;;;;;;;;;;;;;22.76;73.63;102037.19;20455997;28;20025;-62
2023/08/23 10:05:28;;;;;;;;;;;;;;;23.10;71.83;102032.47;20468452;28;19942;-62
2023/08/23 10:15:52;;;;;;;;;;;;;;;23.18;71.20;102022.28;20430281;28;19938;-62
2023/08/23 10:26:19;;;;;;;;;;;;;;;23.48;69.23;102022.97;20527328;28;19926;-62
2023/08/23 10:36:40;;;;;;;;;;;;;;;23.75;67.79;102007.97;20469498;28;20021;-62
2023/08/23 10:47:06;;;;;;;;;;;;;;;23.95;67.48;102005.69;20459528;28;19931;-62
2023/08/23 10:57:30;;;;;;;;;;;;;;;24.18;68.38;101998.88;20447795;28;20441;-62
2023/08/23 11:07:51;;;;;;;;;;;;;;;24.49;64.42;101987.88;20456065;28;19927;-62
2023/08/23 11:18:13;;;;;;;;;;;;;;;24.74;64.43;101993.19;20443843;28;20115;-63
2023/08/23 11:28:35;;;;;;;;;;;;;;;24.60;67.52;101974.75;20450957;28;19962;-62
2023/08/23 11:38:59;;;;;;;;;;;;;;;24.67;67.78;101983.09;20454206;28;20311;-62
2023/08/23 11:49:22;;;;;;;;;;;;;;;24.97;64.71;101982.75;20460866;28;19934;-62
2023/08/23 11:59:44;;;;;;;;;;;;;;;25.58;63.47;101970.22;20449455;28;19933;-62
2023/08/23 12:10:09;;;;;;;;;;;;;;;25.29;63.89;101965.38;20446018;28;19927;-62
2023/08/23 12:20:30;;;;;;;;;;;;;;;25.17;62.34;101963.59;20445828;28;19974;-62
2023/08/23 12:30:52;;;;;;;;;;;;;;;25.15;67.72;101949.63;20445885;28;19961;-62
2023/08/23 12:41:13;;;;;;;;;;;;;;;25.39;66.01;101948.72;20457160;28;19927;-62
2023/08/23 12:51:35;;;;;;;;;;;;;;;25.41;61.52;101951.25;20454515;28;20425;-62
2023/08/23 13:01:58;;;;;;;;;;;;;;;25.57;58.34;101931.44;20461929;28;20028;-62
2023/08/23 13:12:19;;;;;;;;;;;;;;;25.70;61.13;101937.50;20467897;28;20375;-62
2023/08/23 13:22:41;;;;;;;;;;;;;;;25.61;56.14;101947.94;20471388;28;19926;-62
2023/08/23 13:33:02;;;;;;;;;;;;;;;25.51;59.78;101915.97;20452476;28;19931;-62
2023/08/23 13:43:24;;;;;;;;;;;;;;;25.90;58.10;101912.09;20451986;28;20021;-62
2023/08/23 13:53:48;;;;;;;;;;;;;;;25.92;62.16;101904.88;20456025;28;19935;-62
2023/08/23 14:04:09;;;;;;;;;;;;;;;25.81;58.38;101910.16;20450429;28;20264;-62
2023/08/23 14:14:31;;;;;;;;;;;;;;;25.65;62.09;101901.69;20425540;23;19926;-62
2023/08/23 14:24:52;;;;;;;;;;;;;;;25.43;63.94;101891.00;20448453;28;19934;-61
2023/08/23 14:35:14;;;;;;;;;;;;;;;25.37;64.30;101876.38;20395962;28;20307;-62
2023/08/23 14:45:36;;;;;;;;;;;;;;;25.37;64.02;101886.13;20433425;28;20335;-60
2023/08/23 14:55:58;;;;;;;;;;;;;;;25.34;63.53;101879.25;20448159;28;19941;-62
2023/08/23 15:06:19;;;;;;;;;;;;;;;25.26;63.90;101883.41;20423457;28;19934;-62
2023/08/23 15:16:41;;;;;;;;;;;;;;;25.11;64.01;101879.28;20422970;28;21674;-63
2023/08/23 15:27:03;;;;;;;;;;;;;;;24.95;61.09;101879.53;20428686;28;19931;-62
2023/08/23 15:37:25;;;;;;;;;;;;;;;24.92;65.21;101865.69;20426181;28;19939;-63
2023/08/23 15:47:47;;;;;;;;;;;;;;;25.32;62.80;101867.06;20437985;28;19935;-62
2023/08/23 15:58:13;;;;;;;;;;;;;;;25.43;61.03;101859.19;20415796;28;20052;-61
2023/08/23 16:08:34;;;;;;;;;;;;;;;25.50;62.74;101868.38;20417193;28;20641;-63
2023/08/23 16:18:56;;;;;;;;;;;;;;;25.22;64.77;101876.66;20431271;28;19941;-62
2023/08/23 16:29:18;;;;;;;;;;;;;;;25.16;65.63;101855.94;20435687;28;19926;-64
2023/08/23 16:39:40;;;;;;;;;;;;;;;25.36;65.49;101863.22;20413096;28;19954;-62
2023/08/23 16:50:04;;;;;;;;;;;;;;;25.21;65.20;101864.38;20409476;28;19931;-62
2023/08/23 17:00:26;;;;;;;;;;;;;;;24.85;67.70;101860.00;20431976;28;19927;-64
2023/08/23 17:10:47;;;;;;;;;;;;;;;24.54;69.17;101856.03;20405013;28;19930;-66
2023/08/23 17:21:09;;;;;;;;;;;;;;;24.30;70.70;101881.59;20440120;28;20056;-66
2023/08/23 17:31:31;;;;;;;;;;;;;;;24.03;71.92;101880.88;20424056;28;19935;-66
2023/08/23 17:41:52;;;;;;;;;;;;;;;23.77;73.07;101884.44;20435721;28;20077;-64
2023/08/23 17:52:14;;;;;;;;;;;;;;;23.59;73.65;101888.31;20425455;28;19927;-66
2023/08/23 18:02:35;;;;;;;;;;;;;;;23.44;73.96;101889.34;20453452;28;20401;-65
2023/08/23 18:12:57;;;;;;;;;;;;;;;23.33;74.99;101902.44;20449898;28;19930;-65
2023/08/23 18:23:18;;;;;;;;;;;;;;;23.19;75.67;101920.94;20440418;28;19931;-66
2023/08/23 18:33:40;;;;;;;;;;;;;;;23.07;75.97;101932.31;20408436;28;19934;-66
2023/08/23 18:44:01;;;;;;;;;;;;;;;22.96;77.12;101939.09;20417767;28;19941;-66
2023/08/23 18:54:23;;;;;;;;;;;;;;;22.87;77.51;101942.31;20466266;28;19943;-65
2023/08/23 19:04:44;;;;;;;;;;;;;;;22.80;76.54;101948.09;20413177;28;20033;-62
2023/08/23 19:15:06;;;;;;;;;;;;;;;22.63;75.13;101949.16;20434465;28;19934;-64
2023/08/23 19:25:30;;;;;;;;;;;;;;;22.54;75.06;101965.50;20410489;28;19931;-63
2023/08/23 19:35:51;;;;;;;;;;;;;;;22.43;74.25;101973.28;20427266;28;19954;-62
2023/08/23 19:46:13;;;;;;;;;;;;;;;22.38;73.23;101967.41;20437294;28;19931;-62
2023/08/23 19:56:34;;;;;;;;;;;;;;;22.30;73.88;101966.19;20415331;28;19939;-62
2023/08/23 20:07:02;;;;;;;;;;;;;;;22.19;73.33;101974.75;20394353;28;20322;-64
2023/08/23 20:17:24;;;;;;;;;;;;;;;22.13;73.67;101966.34;20424187;28;20620;-62
2023/08/23 20:27:46;;;;;;;;;;;;;;;22.04;72.97;101969.53;20422414;28;20395;-62
2023/08/23 20:38:13;;;;;;;;;;;;;;;21.92;72.72;101973.75;20422033;28;20310;-63
2023/08/23 20:48:35;;;;;;;;;;;;;;;21.88;73.67;101980.13;20448552;28;20450;-63
2023/08/23 20:58:57;;;;;;;;;;;;;;;21.84;72.75;101970.69;20405479;28;19945;-61
2023/08/23 21:09:18;;;;;;;;;;;;;;;21.73;73.49;101973.94;20428606;28;19954;-61
2023/08/23 21:19:40;;;;;;;;;;;;;;;21.59;73.80;101973.88;20435798;28;19937;-60
2023/08/23 21:30:01;;;;;;;;;;;;;;;21.51;73.63;101980.53;20429917;28;19941;-60
2023/08/23 21:40:23;;;;;;;;;;;;;;;21.48;75.00;101980.72;20437709;28;19937;-61
2023/08/23 21:50:46;;;;;;;;;;;;;;;21.40;74.57;101969.75;20456902;28;19931;-62
2023/08/23 22:01:07;;;;;;;;;;;;;;;21.35;74.65;101961.25;20450768;28;19930;-62
2023/08/23 22:11:29;;;;;;;;;;;;;;;21.35;75.47;101958.63;20455562;28;19984;-61
2023/08/23 22:21:50;;;;;;;;;;;;;;;21.24;74.97;101966.28;20434176;28;19934;-61
2023/08/23 22:32:13;;;;;;;;;;;;;;;21.18;75.71;101963.97;20447513;28;19934;-60
2023/08/23 22:42:34;;;;;;;;;;;;;;;21.10;76.65;101953.88;20439705;28;20009;-60
2023/08/23 22:52:56;;;;;;;;;;;;;;;20.95;76.72;101955.53;20460359;28;19931;-61
2023/08/23 23:03:17;;;;;;;;;;;;;;;20.84;77.02;101963.16;20447011;28;20505;-61
2023/08/23 23:13:39;;;;;;;;;;;;;;;20.75;77.29;101962.81;20455444;28;20140;-61
2023/08/23 23:24:00;;;;;;;;;;;;;;;20.65;78.19;101946.69;20465037;28;20032;-60
2023/08/23 23:34:22;;;;;;;;;;;;;;;20.54;78.57;101949.06;20452068;28;20021;-61
2023/08/23 23:44:43;;;;;;;;;;;;;;;20.33;79.57;101939.66;20442196;28;19931;-61
2023/08/23 23:55:05;;;;;;;;;;;;;;;20.23;80.08;101948.13;20440282;28;19926;-60
